createdAt,value
2018-09-11T00:01:20.896Z,20.77
2018-09-11T00:03:47.250Z,20.68
2018-09-11T00:06:13.560Z,20.63
2018-09-11T00:08:39.922Z,20.63
2018-09-11T00:11:06.244Z,20.60
2018-09-11T00:13:32.572Z,20.58
2018-09-11T00:15:58.897Z,20.57
2018-09-11T00:18:25.210Z,20.56
2018-09-11T00:20:51.561Z,20.51
2018-09-11T00:23:17.871Z,20.40
2018-09-11T00:25:44.190Z,20.31
2018-09-11T00:28:10.507Z,20.36
2018-09-11T00:30:36.824Z,20.38
2018-09-11T00:33:03.139Z,20.34
2018-09-11T00:35:29.448Z,20.28
2018-09-11T00:37:55.758Z,20.29
2018-09-11T00:40:22.074Z,20.29
2018-09-11T00:42:48.390Z,20.30
2018-09-11T00:45:14.706Z,20.28
2018-09-11T00:47:41.019Z,20.21
2018-09-11T00:50:07.332Z,20.22
2018-09-11T00:52:33.644Z,20.20
2018-09-11T00:54:59.954Z,20.16
2018-09-11T00:57:26.269Z,20.17
2018-09-11T00:59:52.614Z,20.17
2018-09-11T01:02:18.926Z,20.09
2018-09-11T01:04:45.276Z,20.09
2018-09-11T01:07:11.594Z,20.08
2018-09-11T01:09:37.909Z,20.09
2018-09-11T01:12:04.224Z,20.08
2018-09-11T01:14:30.542Z,20.06
2018-09-11T01:16:56.860Z,20.03
2018-09-11T01:19:23.214Z,20.02
2018-09-11T01:21:49.524Z,19.98
2018-09-11T01:24:15.841Z,19.97
2018-09-11T01:26:42.147Z,19.95
2018-09-11T01:29:08.505Z,19.91
2018-09-11T01:31:34.820Z,19.91
2018-09-11T01:34:01.152Z,19.91
2018-09-11T01:36:27.472Z,19.85
2018-09-11T01:38:53.792Z,19.78
2018-09-11T01:41:20.100Z,19.75
2018-09-11T01:43:46.417Z,19.74
2018-09-11T01:46:12.729Z,19.69
2018-09-11T01:48:39.063Z,19.61
2018-09-11T01:51:05.371Z,19.60
2018-09-11T01:53:31.687Z,19.58
2018-09-11T01:55:58.009Z,19.59
2018-09-11T01:58:24.332Z,19.62
2018-09-11T02:00:50.643Z,19.59
2018-09-11T02:03:16.959Z,19.56
2018-09-11T02:05:43.326Z,19.55
2018-09-11T02:08:09.629Z,19.48
2018-09-11T02:10:35.940Z,19.49
2018-09-11T02:13:02.248Z,19.53
2018-09-11T02:15:28.557Z,19.53
2018-09-11T02:17:54.867Z,19.52
2018-09-11T02:20:21.220Z,19.43
2018-09-11T02:22:47.533Z,19.32
2018-09-11T02:25:13.880Z,19.27
2018-09-11T02:27:40.193Z,19.28
2018-09-11T02:30:06.500Z,19.24
2018-09-11T02:32:32.816Z,19.24
2018-09-11T02:34:59.124Z,19.20
2018-09-11T02:37:25.439Z,19.24
2018-09-11T02:39:51.790Z,19.22
2018-09-11T02:42:18.105Z,19.24
2018-09-11T02:44:44.415Z,19.24
2018-09-11T02:47:10.724Z,19.25
2018-09-11T02:49:37.049Z,19.20
2018-09-11T02:52:03.357Z,19.12
2018-09-11T02:54:29.674Z,19.11
2018-09-11T02:56:55.994Z,19.11
2018-09-11T02:59:22.319Z,19.10
2018-09-11T03:01:48.629Z,19.11
2018-09-11T03:04:14.947Z,19.01
2018-09-11T03:06:41.265Z,18.98
2018-09-11T03:09:07.576Z,18.94
2018-09-11T03:11:33.893Z,18.91
2018-09-11T03:14:00.209Z,18.92
2018-09-11T03:16:26.529Z,18.89
2018-09-11T03:18:52.921Z,18.87
2018-09-11T03:21:19.210Z,18.81
2018-09-11T03:23:45.556Z,18.74
2018-09-11T03:26:11.869Z,18.74
2018-09-11T03:28:38.184Z,18.80
2018-09-11T03:31:04.496Z,18.84
2018-09-11T03:33:30.799Z,18.86
2018-09-11T03:35:57.117Z,18.86
2018-09-11T03:38:23.438Z,18.84
2018-09-11T03:40:49.790Z,18.85
2018-09-11T03:43:16.101Z,18.85
2018-09-11T03:45:42.421Z,18.83
2018-09-11T03:48:08.755Z,18.77
2018-09-11T03:50:35.071Z,18.76
2018-09-11T03:53:01.386Z,18.77
2018-09-11T03:55:27.714Z,18.79
2018-09-11T03:57:54.019Z,18.73
2018-09-11T04:00:20.386Z,18.72
2018-09-11T04:02:46.688Z,18.74
2018-09-11T04:05:13.000Z,18.74
2018-09-11T04:07:39.323Z,18.72
2018-09-11T04:10:05.648Z,18.70
2018-09-11T04:12:31.966Z,18.70
2018-09-11T04:14:58.288Z,18.69
2018-09-11T04:17:24.600Z,18.93
2018-09-11T04:19:50.916Z,19.34
2018-09-11T04:22:17.229Z,19.59
2018-09-11T04:24:43.547Z,19.81
2018-09-11T04:27:09.855Z,19.96
2018-09-11T04:29:36.171Z,20.10
2018-09-11T04:32:02.487Z,20.19
2018-09-11T04:34:28.792Z,20.23
2018-09-11T04:36:55.099Z,20.28
2018-09-11T04:39:21.407Z,20.25
2018-09-11T04:41:47.769Z,20.25
2018-09-11T04:44:14.087Z,20.35
2018-09-11T04:46:40.398Z,20.43
2018-09-11T04:49:06.723Z,20.47
2018-09-11T04:51:33.052Z,20.51
2018-09-11T04:53:59.359Z,20.56
2018-09-11T04:56:25.668Z,20.64
2018-09-11T04:58:51.984Z,20.71
2018-09-11T05:01:18.309Z,20.72
2018-09-11T05:03:44.621Z,20.67
2018-09-11T05:06:10.945Z,20.57
2018-09-11T05:08:37.251Z,20.40
2018-09-11T05:11:03.559Z,20.21
2018-09-11T05:13:29.880Z,20.10
2018-09-11T05:15:56.188Z,20.04
2018-09-11T05:18:22.505Z,20.08
2018-09-11T05:20:48.811Z,20.10
2018-09-11T05:23:15.125Z,20.11
2018-09-11T05:25:41.448Z,20.12
2018-09-11T05:28:07.761Z,20.10
2018-09-11T05:30:34.082Z,20.12
2018-09-11T05:33:01.240Z,20.16
2018-09-11T05:35:27.546Z,20.23
2018-09-11T05:37:53.866Z,20.32
2018-09-11T05:40:20.220Z,20.38
2018-09-11T05:42:46.738Z,20.46
2018-09-11T05:45:13.056Z,20.58
2018-09-11T05:47:39.360Z,20.64
2018-09-11T05:50:05.715Z,20.70
2018-09-11T05:52:32.034Z,20.76
2018-09-11T05:54:58.392Z,20.83
2018-09-11T05:57:24.710Z,20.89
2018-09-11T05:59:51.031Z,20.94
2018-09-11T06:02:17.354Z,21.08
2018-09-11T06:04:43.661Z,21.26
2018-09-11T06:07:09.973Z,21.36
2018-09-11T06:09:36.322Z,21.47
2018-09-11T06:12:02.630Z,21.57
2018-09-11T06:14:28.946Z,21.65
2018-09-11T06:16:55.270Z,21.78
2018-09-11T06:19:21.579Z,21.90
2018-09-11T06:21:47.895Z,22.11
2018-09-11T06:24:14.199Z,22.32
2018-09-11T06:26:40.520Z,22.45
2018-09-11T06:29:06.846Z,22.47
2018-09-11T06:31:33.144Z,22.47
2018-09-11T06:33:59.491Z,22.56
2018-09-11T06:36:25.803Z,22.72
2018-09-11T06:38:52.115Z,22.92
2018-09-11T06:41:18.437Z,23.09
2018-09-11T06:43:44.746Z,23.21
2018-09-11T06:46:11.057Z,23.27
2018-09-11T06:48:37.377Z,23.35
2018-09-11T06:51:03.698Z,23.49
2018-09-11T06:53:30.018Z,23.65
2018-09-11T06:55:56.335Z,23.76
2018-09-11T06:58:22.643Z,23.96
2018-09-11T07:00:48.963Z,24.10
2018-09-11T07:03:15.360Z,24.19
2018-09-11T07:05:41.673Z,24.35
2018-09-11T07:08:08.009Z,24.44
2018-09-11T07:10:34.334Z,24.57
2018-09-11T07:13:00.642Z,24.71
2018-09-11T07:15:26.961Z,24.81
2018-09-11T07:17:53.612Z,24.94
2018-09-11T07:20:20.282Z,25.07
2018-09-11T07:22:46.275Z,25.18
2018-09-11T07:25:12.592Z,25.30
2018-09-11T07:27:38.910Z,25.40
2018-09-11T07:30:05.228Z,25.49
2018-09-11T07:32:31.605Z,25.57
2018-09-11T07:34:57.862Z,25.68
2018-09-11T07:37:24.220Z,25.78
2018-09-11T07:39:50.527Z,25.86
2018-09-11T07:42:16.846Z,25.93
2018-09-11T07:44:43.199Z,26.01
2018-09-11T07:47:09.516Z,26.11
2018-09-11T07:49:35.852Z,26.20
2018-09-11T07:52:02.165Z,26.27
2018-09-11T07:54:28.471Z,26.37
2018-09-11T07:56:54.850Z,26.47
2018-09-11T07:59:21.143Z,26.58
2018-09-11T08:01:47.487Z,26.73
2018-09-11T08:04:13.802Z,26.85
2018-09-11T08:06:40.168Z,26.94
2018-09-11T08:09:06.521Z,26.98
2018-09-11T08:11:32.831Z,27.02
2018-09-11T08:13:59.148Z,27.08
2018-09-11T08:16:25.477Z,27.17
2018-09-11T08:18:51.771Z,27.29
2018-09-11T08:21:18.084Z,27.40
2018-09-11T08:23:44.396Z,27.48
2018-09-11T08:26:10.711Z,27.56
2018-09-11T08:28:37.031Z,27.69
2018-09-11T08:31:03.363Z,27.83
2018-09-11T08:33:29.684Z,27.92
2018-09-11T08:35:56.008Z,27.94
2018-09-11T08:38:22.327Z,27.64
2018-09-11T08:40:48.648Z,27.44
2018-09-11T08:43:14.972Z,27.47
2018-09-11T08:45:41.310Z,27.51
2018-09-11T08:48:07.670Z,27.68
2018-09-11T08:50:33.996Z,27.87
2018-09-11T08:53:00.337Z,28.07
2018-09-11T08:55:26.668Z,28.25
2018-09-11T08:57:53.013Z,28.39
2018-09-11T09:00:19.337Z,28.53
2018-09-11T09:02:45.661Z,28.65
2018-09-11T09:05:12.013Z,28.69
2018-09-11T09:07:38.332Z,28.59
2018-09-11T09:10:04.681Z,28.37
2018-09-11T09:12:30.967Z,28.18
2018-09-11T09:14:57.329Z,28.02
2018-09-11T09:17:23.616Z,28.00
2018-09-11T09:19:49.925Z,28.01
2018-09-11T09:22:16.295Z,28.00
2018-09-11T09:24:42.611Z,28.00
2018-09-11T09:27:08.977Z,28.00
2018-09-11T09:29:35.251Z,28.00
2018-09-11T09:32:01.607Z,28.06
2018-09-11T09:34:27.926Z,28.06
2018-09-11T09:36:54.243Z,27.87
2018-09-11T09:39:20.558Z,27.78
2018-09-11T09:41:46.881Z,27.63
2018-09-11T09:44:13.196Z,27.42
2018-09-11T09:46:39.504Z,27.40
2018-09-11T09:49:05.828Z,27.48
2018-09-11T09:51:32.151Z,27.51
2018-09-11T09:53:58.470Z,27.55
2018-09-11T09:56:24.775Z,27.60
2018-09-11T09:58:51.128Z,27.54
2018-09-11T10:01:17.440Z,27.47
2018-09-11T10:03:43.772Z,27.43
2018-09-11T10:06:10.085Z,27.58
2018-09-11T10:08:36.395Z,27.69
2018-09-11T10:11:02.703Z,27.69
2018-09-11T10:13:29.028Z,27.61
2018-09-11T10:15:55.344Z,27.46
2018-09-11T10:18:21.652Z,27.34
2018-09-11T10:20:47.959Z,27.35
2018-09-11T10:23:14.272Z,27.57
2018-09-11T10:25:40.579Z,27.78
2018-09-11T10:28:06.899Z,27.75
2018-09-11T10:30:33.300Z,27.65
2018-09-11T10:32:59.582Z,27.50
2018-09-11T10:35:25.896Z,27.50
2018-09-11T10:37:52.208Z,27.55
2018-09-11T10:40:18.516Z,27.67
2018-09-11T10:42:44.921Z,27.72
2018-09-11T10:45:11.242Z,27.83
2018-09-11T10:47:37.564Z,28.02
2018-09-11T10:50:03.895Z,28.23
2018-09-11T10:52:30.204Z,28.30
2018-09-11T10:54:56.526Z,28.24
2018-09-11T10:57:22.848Z,28.24
2018-09-11T10:59:49.178Z,28.22
2018-09-11T11:02:15.529Z,28.24
2018-09-11T11:04:41.814Z,28.35
2018-09-11T11:07:08.151Z,28.41
2018-09-11T11:09:34.470Z,28.39
2018-09-11T11:12:00.792Z,28.34
2018-09-11T11:14:27.104Z,28.35
2018-09-11T11:16:53.499Z,28.36
2018-09-11T11:19:19.797Z,28.24
2018-09-11T11:21:46.113Z,28.18
2018-09-11T11:24:12.436Z,28.13
2018-09-11T11:26:38.752Z,28.12
2018-09-11T11:29:05.072Z,28.06
2018-09-11T11:31:31.384Z,27.93
2018-09-11T11:33:57.720Z,27.81
2018-09-11T11:36:24.580Z,27.68
2018-09-11T11:38:50.736Z,27.64
2018-09-11T11:41:17.048Z,27.67
2018-09-11T11:43:43.367Z,27.81
2018-09-11T11:46:09.682Z,27.95
2018-09-11T11:48:36.002Z,28.10
2018-09-11T11:51:02.308Z,28.23
2018-09-11T11:53:28.621Z,28.35
2018-09-11T11:55:54.987Z,28.40
2018-09-11T11:58:21.367Z,28.39
2018-09-11T12:00:47.690Z,28.39
2018-09-11T12:03:14.079Z,28.42
2018-09-11T12:05:40.399Z,28.45
2018-09-11T12:08:06.722Z,28.51
2018-09-11T12:10:33.038Z,28.52
2018-09-11T12:12:59.365Z,28.59
2018-09-11T12:15:25.684Z,28.67
2018-09-11T12:17:52.002Z,28.75
2018-09-11T12:20:18.330Z,28.83
2018-09-11T12:22:44.656Z,28.88
2018-09-11T12:25:10.983Z,28.88
2018-09-11T12:27:37.297Z,28.82
2018-09-11T12:30:03.656Z,28.73
2018-09-11T12:32:29.983Z,28.72
2018-09-11T12:34:56.311Z,28.74
2018-09-11T12:37:22.627Z,28.78
2018-09-11T12:39:48.950Z,28.82
2018-09-11T12:42:15.263Z,28.83
2018-09-11T12:44:41.591Z,28.82
2018-09-11T12:47:08.075Z,28.73
2018-09-11T12:49:34.233Z,28.60
2018-09-11T12:52:00.557Z,28.48
2018-09-11T12:54:26.869Z,28.38
2018-09-11T12:56:53.198Z,28.27
2018-09-11T12:59:19.524Z,28.20
2018-09-11T13:01:45.851Z,28.10
2018-09-11T13:04:12.183Z,27.98
2018-09-11T13:06:38.506Z,27.87
2018-09-11T13:09:04.838Z,27.82
2018-09-11T13:11:31.162Z,27.76
2018-09-11T13:13:57.492Z,27.78
2018-09-11T13:16:23.805Z,27.81
2018-09-11T13:18:50.135Z,27.84
2018-09-11T13:21:16.447Z,27.89
2018-09-11T13:23:42.793Z,27.88
2018-09-11T13:26:09.110Z,27.90
2018-09-11T13:28:35.437Z,27.92
2018-09-11T13:31:01.749Z,27.91
2018-09-11T13:33:28.068Z,27.88
2018-09-11T13:35:54.395Z,27.76
2018-09-11T13:38:20.726Z,27.70
2018-09-11T13:40:47.040Z,27.69
2018-09-11T13:43:13.347Z,27.66
2018-09-11T13:45:39.677Z,27.62
2018-09-11T13:48:06.002Z,27.63
2018-09-11T13:50:32.321Z,27.64
2018-09-11T13:52:58.699Z,27.61
2018-09-11T13:55:25.010Z,27.59
2018-09-11T13:57:51.344Z,27.56
2018-09-11T14:00:17.654Z,27.53
2018-09-11T14:02:44.076Z,27.53
2018-09-11T14:05:10.314Z,27.50
2018-09-11T14:07:36.630Z,27.46
2018-09-11T14:10:02.941Z,27.43
2018-09-11T14:12:29.270Z,27.36
2018-09-11T14:14:55.594Z,27.32
2018-09-11T14:17:21.921Z,27.25
2018-09-11T14:19:48.251Z,27.20
2018-09-11T14:22:14.607Z,27.19
2018-09-11T14:24:40.937Z,27.15
2018-09-11T14:27:07.255Z,27.11
2018-09-11T14:29:33.581Z,27.05
2018-09-11T14:31:59.899Z,26.99
2018-09-11T14:34:26.258Z,26.89
2018-09-11T14:36:52.584Z,26.82
2018-09-11T14:39:18.915Z,26.80
2018-09-11T14:41:45.237Z,26.77
2018-09-11T14:44:11.562Z,26.69
2018-09-11T14:46:37.916Z,26.64
2018-09-11T14:49:04.189Z,26.59
2018-09-11T14:51:30.498Z,26.57
2018-09-11T14:53:56.849Z,26.54
2018-09-11T14:56:23.168Z,26.53
2018-09-11T14:58:49.495Z,26.50
2018-09-11T15:01:15.819Z,26.45
2018-09-11T15:03:42.168Z,26.43
2018-09-11T15:06:08.452Z,26.40
2018-09-11T15:08:34.813Z,26.36
2018-09-11T15:11:01.150Z,26.33
2018-09-11T15:13:27.459Z,26.27
2018-09-11T15:15:53.785Z,26.22
2018-09-11T15:18:20.114Z,26.18
2018-09-11T15:20:46.442Z,26.10
2018-09-11T15:23:12.769Z,26.09
2018-09-11T15:25:39.083Z,26.06
2018-09-11T15:28:05.415Z,26.09
2018-09-11T15:30:31.729Z,26.24
2018-09-11T15:32:58.055Z,26.30
2018-09-11T15:35:24.423Z,26.31
2018-09-11T15:37:50.736Z,26.31
2018-09-11T15:40:17.058Z,26.28
2018-09-11T15:42:43.377Z,26.26
2018-09-11T15:45:09.742Z,26.26
2018-09-11T15:47:36.077Z,26.25
2018-09-11T15:50:02.393Z,26.21
2018-09-11T15:52:28.722Z,26.19
2018-09-11T15:54:55.040Z,26.15
2018-09-11T15:57:21.365Z,26.13
2018-09-11T15:59:47.678Z,26.04
2018-09-11T16:02:14.039Z,25.90
2018-09-11T16:04:40.348Z,25.81
2018-09-11T16:07:06.736Z,25.75
2018-09-11T16:09:33.008Z,25.71
2018-09-11T16:11:59.341Z,25.66
2018-09-11T16:14:25.656Z,25.62
2018-09-11T16:16:51.968Z,25.57
2018-09-11T16:19:18.298Z,25.56
2018-09-11T16:21:44.610Z,25.57
2018-09-11T16:24:10.934Z,25.52
2018-09-11T16:26:37.249Z,25.47
2018-09-11T16:29:03.595Z,25.43
2018-09-11T16:31:29.908Z,25.39
2018-09-11T16:33:56.245Z,25.34
2018-09-11T16:36:22.556Z,25.31
2018-09-11T16:38:48.913Z,25.29
2018-09-11T16:41:15.260Z,25.25
2018-09-11T16:43:41.585Z,25.18
2018-09-11T16:46:07.900Z,25.17
2018-09-11T16:48:34.232Z,25.11
2018-09-11T16:51:00.553Z,25.07
2018-09-11T16:53:26.869Z,25.03
2018-09-11T16:55:53.212Z,25.00
2018-09-11T16:58:19.566Z,25.00
2018-09-11T17:00:45.897Z,24.93
2018-09-11T17:03:12.204Z,24.85
2018-09-11T17:05:38.516Z,24.82
2018-09-11T17:08:04.838Z,24.79
2018-09-11T17:10:31.168Z,24.74
2018-09-11T17:12:57.502Z,24.73
2018-09-11T17:15:23.824Z,24.69
2018-09-11T17:17:50.139Z,24.72
2018-09-11T17:20:16.541Z,24.68
2018-09-11T17:22:42.778Z,24.65
2018-09-11T17:25:09.089Z,24.66
2018-09-11T17:27:35.404Z,24.61
2018-09-11T17:30:01.775Z,24.57
2018-09-11T17:32:28.130Z,24.54
2018-09-11T17:34:54.465Z,24.54
2018-09-11T17:37:20.851Z,24.56
2018-09-11T17:39:47.160Z,24.56
2018-09-11T17:42:13.486Z,24.52
2018-09-11T17:44:39.810Z,24.50
2018-09-11T17:47:06.116Z,24.45
2018-09-11T17:49:32.427Z,24.41
2018-09-11T17:51:58.750Z,24.37
2018-09-11T17:54:25.084Z,24.44
2018-09-11T17:56:51.409Z,24.48
2018-09-11T17:59:17.720Z,24.37
2018-09-11T18:01:44.032Z,24.30
2018-09-11T18:04:10.340Z,24.26
2018-09-11T18:06:36.681Z,24.22
2018-09-11T18:09:03.173Z,24.21
2018-09-11T18:11:29.476Z,24.20
2018-09-11T18:13:55.789Z,24.19
2018-09-11T18:16:22.105Z,24.14
2018-09-11T18:18:48.427Z,24.09
2018-09-11T18:21:14.754Z,24.07
2018-09-11T18:23:41.065Z,24.06
2018-09-11T18:26:07.399Z,24.05
2018-09-11T18:28:33.706Z,24.01
2018-09-11T18:31:00.018Z,23.97
2018-09-11T18:33:26.333Z,23.89
2018-09-11T18:35:52.666Z,23.84
2018-09-11T18:38:18.982Z,23.81
2018-09-11T18:40:45.350Z,23.78
2018-09-11T18:43:11.622Z,23.75
2018-09-11T18:45:37.947Z,23.71
2018-09-11T18:48:04.272Z,23.72
2018-09-11T18:50:30.602Z,23.73
2018-09-11T18:52:56.936Z,23.74
2018-09-11T18:55:23.272Z,23.70
2018-09-11T18:57:49.613Z,23.62
2018-09-11T19:00:15.918Z,23.57
2018-09-11T19:02:42.273Z,23.51
2018-09-11T19:05:08.647Z,23.47
2018-09-11T19:07:34.940Z,23.45
2018-09-11T19:10:01.247Z,23.41
2018-09-11T19:12:27.566Z,23.38
2018-09-11T19:14:53.890Z,23.38
2018-09-11T19:17:20.206Z,23.36
2018-09-11T19:19:46.563Z,23.31
2018-09-11T19:22:12.841Z,23.30
2018-09-11T19:24:39.152Z,23.29
2018-09-11T19:27:05.514Z,23.26
2018-09-11T19:29:31.836Z,23.23
2018-09-11T19:31:58.166Z,23.20
2018-09-11T19:34:24.535Z,23.19
2018-09-11T19:36:50.868Z,23.16
2018-09-11T19:39:17.176Z,23.17
2018-09-11T19:41:43.547Z,23.15
2018-09-11T19:44:09.848Z,23.14
2018-09-11T19:46:36.165Z,23.10
2018-09-11T19:49:02.519Z,23.10
2018-09-11T19:51:28.843Z,23.07
2018-09-11T19:53:55.161Z,23.14
2018-09-11T19:56:21.484Z,23.10
2018-09-11T19:58:47.807Z,23.01
2018-09-11T20:01:14.107Z,22.93
2018-09-11T20:03:40.417Z,22.85
2018-09-11T20:06:06.736Z,22.81
2018-09-11T20:08:33.092Z,22.82
2018-09-11T20:10:59.407Z,22.80
2018-09-11T20:13:25.729Z,22.80
2018-09-11T20:15:52.046Z,22.79
2018-09-11T20:18:18.372Z,22.76
2018-09-11T20:20:44.721Z,22.72
2018-09-11T20:23:11.044Z,22.66
2018-09-11T20:25:37.352Z,22.60
2018-09-11T20:28:03.746Z,22.56
2018-09-11T20:30:30.022Z,22.55
2018-09-11T20:32:56.424Z,22.56
2018-09-11T20:35:22.742Z,22.52
2018-09-11T20:37:49.056Z,22.50
2018-09-11T20:40:15.373Z,22.46
2018-09-11T20:42:41.719Z,22.39
2018-09-11T20:45:08.101Z,22.28
2018-09-11T20:47:34.355Z,22.33
2018-09-11T20:50:00.669Z,22.35
2018-09-11T20:52:26.990Z,22.30
2018-09-11T20:54:53.312Z,22.24
2018-09-11T20:57:19.636Z,22.14
2018-09-11T20:59:45.970Z,22.07
2018-09-11T21:02:12.299Z,22.00
2018-09-11T21:04:38.610Z,22.01
2018-09-11T21:07:04.939Z,22.01
2018-09-11T21:09:31.266Z,21.96
2018-09-11T21:11:57.574Z,21.94
2018-09-11T21:14:23.887Z,21.90
2018-09-11T21:16:50.208Z,21.86
2018-09-11T21:19:16.515Z,21.83
2018-09-11T21:21:42.865Z,21.78
2018-09-11T21:24:09.191Z,21.76
2018-09-11T21:26:35.519Z,21.74
2018-09-11T21:29:01.842Z,21.75
2018-09-11T21:31:28.171Z,21.70
2018-09-11T21:33:54.494Z,21.69
2018-09-11T21:36:20.801Z,21.68
2018-09-11T21:38:47.118Z,21.68
2018-09-11T21:41:13.485Z,21.61
2018-09-11T21:43:39.802Z,21.59
2018-09-11T21:46:06.141Z,21.54
2018-09-11T21:48:32.436Z,21.50
2018-09-11T21:50:58.755Z,21.44
2018-09-11T21:53:25.110Z,21.35
2018-09-11T21:55:54.307Z,21.34
2018-09-11T21:58:20.602Z,21.33
2018-09-11T22:00:53.030Z,21.31
2018-09-11T22:03:21.959Z,21.31
2018-09-11T22:05:48.309Z,21.27
2018-09-11T22:08:14.592Z,21.28
2018-09-11T22:10:40.953Z,21.26
2018-09-11T22:13:07.233Z,21.22
2018-09-11T22:15:33.544Z,21.20
2018-09-11T22:17:59.874Z,21.16
2018-09-11T22:20:26.179Z,21.10
2018-09-11T22:22:52.487Z,21.09
2018-09-11T22:25:18.795Z,21.05
2018-09-11T22:27:45.104Z,21.01
2018-09-11T22:30:11.452Z,20.99
2018-09-11T22:32:37.772Z,20.96
2018-09-11T22:35:04.079Z,20.89
2018-09-11T22:37:30.392Z,20.86
2018-09-11T22:39:56.743Z,20.81
2018-09-11T22:42:23.106Z,20.81
2018-09-11T22:44:49.371Z,20.83
2018-09-11T22:47:15.684Z,20.80
2018-09-11T22:49:42.035Z,20.81
2018-09-11T22:52:08.316Z,20.80
2018-09-11T22:54:34.674Z,20.78
2018-09-11T22:57:00.986Z,20.77
2018-09-11T22:59:27.304Z,20.78
2018-09-11T23:01:53.614Z,20.79
2018-09-11T23:04:19.979Z,20.79
2018-09-11T23:06:46.306Z,20.77
2018-09-11T23:09:12.650Z,20.72
2018-09-11T23:11:38.955Z,20.70
2018-09-11T23:14:05.311Z,20.65
2018-09-11T23:16:31.617Z,20.57
2018-09-11T23:18:57.943Z,20.59
2018-09-11T23:21:24.252Z,20.60
2018-09-11T23:23:50.582Z,20.60
2018-09-11T23:26:16.892Z,20.59
2018-09-11T23:28:43.205Z,20.60
2018-09-11T23:31:09.562Z,20.59
2018-09-11T23:33:35.936Z,20.53
2018-09-11T23:36:02.248Z,20.53
2018-09-11T23:38:28.572Z,20.45
2018-09-11T23:40:54.892Z,20.42
2018-09-11T23:43:21.211Z,20.45
2018-09-11T23:45:47.523Z,20.43
2018-09-11T23:48:13.843Z,20.37
2018-09-11T23:50:40.148Z,20.37
2018-09-11T23:53:06.463Z,20.32
2018-09-11T23:55:32.783Z,20.29
2018-09-11T23:57:59.099Z,20.25
